Time;durP1;ratioP1;P1;durP2;ratioP2;P2;SDS_P1;SDS_P2;PMS_P1;PMS_P2;Temp;Humidity;BMP_temperature;BMP_pressure;BME280_temperature;BME280_humidity;BME280_pressure;Samples;Min_cycle;Max_cycle;Signal;HPM_P1;HPM_P2
2022/06/02 00:02:35;;;;;;;0.70;0.57;;;7.80;99.90;;;;;;5084758;28;20056;-79
2022/06/02 00:05:26;;;;;;;1.20;0.70;;;7.70;99.90;;;;;;5095864;28;20107;-80
2022/06/02 00:08:19;;;;;;;0.75;0.65;;;7.70;99.90;;;;;;5084585;28;20035;-80
2022/06/02 00:11:03;;;;;;;0.50;0.47;;;7.70;99.90;;;;;;5090634;28;20055;-79
2022/06/02 00:13:37;;;;;;;0.63;0.60;;;7.70;99.90;;;;;;5095516;28;20111;-79
2022/06/02 00:16:07;;;;;;;0.98;0.80;;;7.70;99.90;;;;;;5110109;28;20061;-80
2022/06/02 00:18:48;;;;;;;0.70;0.70;;;7.60;99.90;;;;;;5100130;28;20514;-80
2022/06/02 00:21:17;;;;;;;1.08;0.90;;;7.60;99.90;;;;;;5095832;28;20329;-79
2022/06/02 00:23:53;;;;;;;1.00;0.90;;;7.60;99.90;;;;;;5107809;28;20051;-79
2022/06/02 00:26:41;;;;;;;1.05;0.85;;;7.60;99.90;;;;;;5107521;28;20509;-79
2022/06/02 00:29:13;;;;;;;1.00;0.88;;;7.60;99.90;;;;;;5101174;28;20050;-79
2022/06/02 00:31:50;;;;;;;1.00;0.90;;;7.70;99.90;;;;;;5099976;28;20063;-79
2022/06/02 00:34:21;;;;;;;1.08;0.80;;;7.70;99.90;;;;;;5107145;28;20048;-79
2022/06/02 00:37:09;;;;;;;1.00;0.60;;;7.70;99.90;;;;;;5097527;28;20108;-79
2022/06/02 00:39:35;;;;;;;0.70;0.68;;;7.70;99.90;;;;;;5099473;28;20083;-79
2022/06/02 00:42:25;;;;;;;0.82;0.60;;;7.70;99.90;;;;;;5106554;28;20071;-79
2022/06/02 00:45:00;;;;;;;0.88;0.80;;;7.70;99.90;;;;;;5102686;28;20051;-79
2022/06/02 00:47:51;;;;;;;0.80;0.80;;;7.60;99.90;;;;;;5095734;28;20063;-79
2022/06/02 00:50:23;;;;;;;1.38;1.00;;;7.60;99.90;;;;;;5106491;28;20051;-78
2022/06/02 00:52:57;;;;;;;1.02;0.90;;;7.60;99.90;;;;;;5102759;28;20048;-79
2022/06/02 00:58:36;;;;;;;0.82;0.73;;;7.60;99.90;;;;;;5094549;28;20105;-79
2022/06/02 01:01:25;;;;;;;0.88;0.73;;;7.60;99.90;;;;;;5098659;28;20438;-79
2022/06/02 01:03:54;;;;;;;0.68;0.60;;;7.60;99.90;;;;;;5107654;28;20059;-79
2022/06/02 01:06:23;;;;;;;0.52;0.52;;;7.60;99.90;;;;;;5102732;28;20051;-79
2022/06/02 01:08:56;;;;;;;1.20;0.95;;;7.60;99.90;;;;;;5104885;28;20051;-79
2022/06/02 01:11:57;;;;;;;1.40;0.90;;;7.50;99.90;;;;;;5104218;28;20467;-79
2022/06/02 01:14:44;;;;;;;0.70;0.70;;;7.40;99.90;;;;;;5091167;28;20040;-79
2022/06/02 01:17:26;;;;;;;1.27;0.88;;;7.40;99.90;;;;;;5097577;28;20040;-79
2022/06/02 01:19:58;;;;;;;0.65;0.65;;;7.40;99.90;;;;;;5095025;28;20052;-79
2022/06/02 01:22:43;;;;;;;0.82;0.80;;;7.40;99.90;;;;;;5086889;28;20390;-79
2022/06/02 01:25:20;;;;;;;0.70;0.70;;;7.40;99.90;;;;;;5101221;28;20047;-79
2022/06/02 01:28:04;;;;;;;0.77;0.65;;;7.40;99.90;;;;;;5095110;28;20052;-79
2022/06/02 01:31:00;;;;;;;0.52;0.52;;;7.30;99.90;;;;;;5117094;27;20089;-79
2022/06/02 01:33:34;;;;;;;0.70;0.68;;;7.20;99.90;;;;;;5099366;28;20056;-79
2022/06/02 01:36:06;;;;;;;1.15;0.68;;;7.20;99.90;;;;;;5091786;28;20560;-79
2022/06/02 01:38:38;;;;;;;0.75;0.52;;;7.20;99.90;;;;;;5096338;28;20054;-79
2022/06/02 01:41:19;;;;;;;0.77;0.63;;;7.20;99.90;;;;;;5093021;28;20043;-78
2022/06/02 01:44:03;;;;;;;0.70;0.70;;;7.20;99.90;;;;;;5105800;28;20478;-79
2022/06/02 01:46:48;;;;;;;1.25;1.10;;;7.10;99.90;;;;;;5100479;28;20039;-79
2022/06/02 01:50:01;;;;;;;1.20;1.10;;;7.10;99.90;;;;;;5102997;28;20078;-79
2022/06/02 01:52:42;;;;;;;1.40;1.30;;;7.10;99.90;;;;;;5081022;28;20095;-79
2022/06/02 01:55:29;;;;;;;1.40;1.17;;;7.30;99.90;;;;;;5096803;27;20054;-79
2022/06/02 01:58:06;;;;;;;1.00;0.90;;;7.30;99.90;;;;;;5097295;28;20117;-79
2022/06/02 02:00:34;;;;;;;0.93;0.93;;;7.20;99.90;;;;;;5099372;28;20094;-79
2022/06/02 02:03:38;;;;;;;1.70;1.30;;;7.20;99.90;;;;;;5109137;28;20043;-79
2022/06/02 02:06:12;;;;;;;1.10;1.00;;;7.40;99.90;;;;;;5108553;28;20050;-79
2022/06/02 02:08:52;;;;;;;1.40;1.30;;;7.40;99.90;;;;;;5108779;28;20039;-79
2022/06/02 02:11:47;;;;;;;1.38;1.10;;;7.40;99.90;;;;;;5084484;28;20050;-79
2022/06/02 02:14:25;;;;;;;1.02;0.93;;;7.40;99.90;;;;;;5099600;28;20054;-79
2022/06/02 02:17:32;;;;;;;0.80;0.80;;;7.30;99.90;;;;;;5100856;28;20457;-80
2022/06/02 02:19:58;;;;;;;1.50;1.08;;;7.40;99.90;;;;;;5102832;28;20040;-79
2022/06/02 02:22:45;;;;;;;1.53;1.00;;;7.30;99.90;;;;;;5098142;28;20047;-79
2022/06/02 02:25:26;;;;;;;1.45;1.00;;;7.30;99.90;;;;;;5109754;28;20321;-79
2022/06/02 02:28:03;;;;;;;1.17;0.90;;;7.30;99.90;;;;;;5097844;28;20130;-78
2022/06/02 02:30:44;;;;;;;1.85;1.00;;;7.30;99.90;;;;;;5095787;28;20046;-78
2022/06/02 02:33:37;;;;;;;1.15;1.00;;;7.20;99.90;;;;;;5103614;28;20051;-78
2022/06/02 02:36:21;;;;;;;1.13;1.00;;;7.10;99.90;;;;;;5106857;28;20108;-78
2022/06/02 02:38:52;;;;;;;1.17;0.80;;;7.00;99.90;;;;;;5092947;28;20044;-77
2022/06/02 02:41:27;;;;;;;1.00;0.90;;;6.90;99.90;;;;;;5104373;28;20047;-77
2022/06/02 02:44:27;;;;;;;0.68;0.50;;;6.90;99.90;;;;;;5105252;28;20044;-79
2022/06/02 02:47:20;;;;;;;0.60;0.60;;;6.80;99.90;;;;;;5091964;28;20152;-72
2022/06/02 02:49:52;;;;;;;0.90;0.80;;;6.80;99.90;;;;;;5093673;28;20047;-73
2022/06/02 02:53:04;;;;;;;1.48;1.20;;;6.90;99.90;;;;;;5075938;28;20144;-73
2022/06/02 02:55:59;;;;;;;1.67;1.55;;;7.10;99.90;;;;;;5108475;28;20103;-73
2022/06/02 02:58:42;;;;;;;2.83;2.28;;;7.30;99.90;;;;;;5105444;27;20124;-73
2022/06/02 03:01:23;;;;;;;2.10;1.90;;;7.40;99.90;;;;;;5096246;28;20119;-73
2022/06/02 03:04:10;;;;;;;1.60;1.30;;;7.50;99.90;;;;;;5100782;28;20043;-73
2022/06/02 03:06:39;;;;;;;1.70;1.60;;;7.60;99.90;;;;;;5092001;28;20048;-73
2022/06/02 03:09:10;;;;;;;2.22;1.83;;;7.60;99.90;;;;;;5104330;28;20048;-73
2022/06/02 03:11:51;;;;;;;1.80;1.42;;;7.70;99.90;;;;;;5101144;28;20051;-74
2022/06/02 03:14:52;;;;;;;1.67;1.58;;;7.70;99.90;;;;;;5081179;28;20056;-74
2022/06/02 03:17:45;;;;;;;1.83;1.60;;;7.60;99.90;;;;;;5073669;28;20081;-73
2022/06/02 03:20:30;;;;;;;1.55;1.35;;;7.60;99.90;;;;;;5094138;28;20101;-72
2022/06/02 03:23:23;;;;;;;1.42;1.00;;;7.70;99.90;;;;;;5096020;28;20669;-72
2022/06/02 03:25:59;;;;;;;1.25;1.00;;;7.60;99.90;;;;;;5105359;28;20097;-73
2022/06/02 03:28:50;;;;;;;1.20;0.95;;;7.50;99.90;;;;;;5102655;28;20043;-72
2022/06/02 03:31:48;;;;;;;1.00;0.80;;;7.60;99.90;;;;;;5094593;28;20707;-72
2022/06/02 03:34:33;;;;;;;1.55;1.00;;;7.50;99.90;;;;;;5105258;28;20100;-72
2022/06/02 03:37:17;;;;;;;1.15;1.00;;;7.50;99.90;;;;;;5089383;28;20367;-72
2022/06/02 03:40:17;;;;;;;1.00;0.90;;;7.60;99.90;;;;;;5100988;28;20043;-73
2022/06/02 03:42:57;;;;;;;1.00;0.90;;;7.50;99.90;;;;;;5102214;28;20047;-72
2022/06/02 03:45:59;;;;;;;0.98;0.88;;;7.60;99.90;;;;;;5092118;28;20126;-78
2022/06/02 03:48:46;;;;;;;0.60;0.60;;;7.50;99.90;;;;;;5092830;28;20070;-73
2022/06/02 03:51:27;;;;;;;0.60;0.60;;;7.50;99.90;;;;;;5091188;28;20027;-72
2022/06/02 03:54:20;;;;;;;0.98;0.82;;;7.40;99.90;;;;;;5101782;28;20035;-73
2022/06/02 03:56:49;;;;;;;1.38;0.73;;;7.50;99.90;;;;;;5098230;28;20135;-73
2022/06/02 03:59:15;;;;;;;0.85;0.85;;;7.40;99.90;;;;;;5077851;28;20044;-73
2022/06/02 04:01:47;;;;;;;1.00;0.90;;;7.50;99.90;;;;;;5091536;28;20151;-73
2022/06/02 04:04:15;;;;;;;1.20;1.10;;;7.60;99.90;;;;;;5090449;28;20101;-72
2022/06/02 04:07:00;;;;;;;1.60;1.48;;;7.70;99.90;;;;;;5090719;28;20036;-72
2022/06/02 04:09:51;;;;;;;1.98;1.63;;;7.60;99.90;;;;;;5094210;28;20098;-72
2022/06/02 04:15:37;;;;;;;1.83;1.40;;;7.90;99.90;;;;;;5092390;28;20147;-73
2022/06/02 04:18:14;;;;;;;1.95;1.75;;;7.90;99.90;;;;;;5097144;28;20055;-79
2022/06/02 04:21:12;;;;;;;1.83;1.55;;;8.00;99.90;;;;;;5096186;28;20136;-78
2022/06/02 04:23:53;;;;;;;1.92;1.63;;;8.00;99.90;;;;;;5095245;28;20059;-78
2022/06/02 04:26:33;;;;;;;1.63;1.30;;;8.20;99.90;;;;;;5093008;28;20109;-78
2022/06/02 04:29:42;;;;;;;3.67;1.90;;;8.10;99.90;;;;;;5096014;28;20491;-79
2022/06/02 04:32:45;;;;;;;2.30;1.70;;;8.20;99.90;;;;;;5095888;28;20079;-78
2022/06/02 04:35:38;;;;;;;2.10;1.65;;;8.40;99.90;;;;;;5095389;28;20048;-78
2022/06/02 04:38:23;;;;;;;2.08;1.80;;;8.40;99.90;;;;;;5100632;27;20082;-78
2022/06/02 04:40:55;;;;;;;2.50;1.90;;;8.40;99.90;;;;;;5095327;28;20058;-77
2022/06/02 04:43:45;;;;;;;4.82;3.42;;;8.40;99.90;;;;;;5082645;28;20040;-79
2022/06/02 04:46:43;;;;;;;3.95;3.03;;;8.60;99.90;;;;;;5096677;28;20140;-78
2022/06/02 04:49:17;;;;;;;3.40;2.80;;;8.60;99.90;;;;;;5099591;28;20032;-80
2022/06/02 04:52:11;;;;;;;3.38;2.90;;;8.70;99.90;;;;;;5098455;28;20106;-77
2022/06/02 04:54:57;;;;;;;4.05;3.53;;;8.70;99.90;;;;;;5099701;28;20503;-77
2022/06/02 04:57:51;;;;;;;3.40;2.92;;;8.70;99.90;;;;;;5097326;28;20044;-76
2022/06/02 05:00:23;;;;;;;3.90;2.63;;;8.90;99.90;;;;;;5094763;28;20074;-76
2022/06/02 05:03:18;;;;;;;2.40;2.15;;;8.80;99.90;;;;;;5089495;27;20036;-76
2022/06/02 05:05:59;;;;;;;2.47;1.90;;;8.90;99.90;;;;;;5093418;28;20399;-75
2022/06/02 05:08:30;;;;;;;5.10;2.40;;;9.00;99.90;;;;;;5092069;28;20713;-75
2022/06/02 05:11:15;;;;;;;2.70;2.40;;;9.10;99.90;;;;;;5093829;28;20040;-75
2022/06/02 05:14:09;;;;;;;2.42;2.20;;;9.30;99.90;;;;;;5094231;28;20058;-77
2022/06/02 05:17:01;;;;;;;2.75;1.92;;;9.40;99.90;;;;;;5092217;28;20094;-78
2022/06/02 05:19:43;;;;;;;2.85;2.55;;;9.50;99.90;;;;;;5109941;27;20090;-77
2022/06/02 05:22:30;;;;;;;3.60;3.00;;;9.70;99.90;;;;;;5093973;28;20039;-77
2022/06/02 05:24:56;;;;;;;2.58;2.30;;;9.80;99.90;;;;;;5086744;28;20766;-78
2022/06/02 05:27:37;;;;;;;3.72;1.95;;;9.80;99.90;;;;;;5088477;28;20036;-77
2022/06/02 05:30:15;;;;;;;2.75;1.88;;;10.00;99.90;;;;;;5078783;28;20057;-77
2022/06/02 05:33:06;;;;;;;2.88;2.60;;;10.00;99.90;;;;;;5089728;28;21270;-75
2022/06/02 05:35:59;;;;;;;3.55;2.30;;;10.10;99.90;;;;;;5089493;28;20121;-75
2022/06/02 05:38:50;;;;;;;2.95;2.20;;;10.30;99.90;;;;;;5089088;28;20071;-75
2022/06/02 05:41:31;;;;;;;3.75;2.58;;;10.40;99.90;;;;;;5094412;28;20089;-75
2022/06/02 05:44:14;;;;;;;2.53;2.13;;;10.50;99.90;;;;;;5092836;28;20107;-76
2022/06/02 05:47:17;;;;;;;3.03;2.17;;;10.70;99.90;;;;;;5089298;28;20048;-76
2022/06/02 05:49:51;;;;;;;3.75;2.45;;;10.80;99.90;;;;;;5098714;28;20065;-76
2022/06/02 05:52:29;;;;;;;2.00;1.80;;;10.90;99.90;;;;;;5100336;28;20490;-76
2022/06/02 05:55:23;;;;;;;2.40;2.00;;;11.00;99.90;;;;;;5091259;28;20062;-73
2022/06/02 05:57:55;;;;;;;2.72;2.00;;;11.20;99.90;;;;;;5095550;28;20048;-72
2022/06/02 06:00:41;;;;;;;4.47;2.25;;;11.30;99.90;;;;;;5090282;28;20040;-72
2022/06/02 06:03:29;;;;;;;2.58;1.77;;;11.40;99.90;;;;;;5091505;28;20398;-72
2022/06/02 06:06:14;;;;;;;2.42;1.55;;;11.50;99.90;;;;;;5090864;28;20173;-72
2022/06/02 06:09:04;;;;;;;3.45;2.08;;;11.60;99.90;;;;;;5091083;28;20113;-72
2022/06/02 06:11:59;;;;;;;2.03;1.67;;;11.90;99.90;;;;;;5090083;28;20031;-73
2022/06/02 06:14:24;;;;;;;3.10;2.10;;;12.30;99.90;;;;;;5090478;28;20044;-77
2022/06/02 06:16:59;;;;;;;1.98;1.50;;;12.80;99.90;;;;;;5092511;28;20047;-78
2022/06/02 06:19:48;;;;;;;2.88;1.63;;;13.30;99.90;;;;;;5092366;28;20052;-78
2022/06/02 06:22:38;;;;;;;4.22;2.03;;;13.70;99.90;;;;;;5099679;28;20044;-76
2022/06/02 06:25:34;;;;;;;3.95;1.55;;;13.90;99.90;;;;;;5096306;28;20391;-76
2022/06/02 06:28:18;;;;;;;2.78;1.33;;;14.30;99.90;;;;;;5073615;28;20044;-76
2022/06/02 06:31:04;;;;;;;1.88;1.30;;;14.20;99.90;;;;;;5109864;27;20044;-76
2022/06/02 06:34:00;;;;;;;3.25;1.15;;;13.80;99.90;;;;;;5074344;28;20063;-77
2022/06/02 06:36:47;;;;;;;1.48;1.17;;;13.70;99.90;;;;;;5093866;28;20051;-76
2022/06/02 06:39:51;;;;;;;3.67;1.13;;;13.90;99.90;;;;;;5098966;28;20047;-76
2022/06/02 06:42:55;;;;;;;2.08;1.23;;;13.90;99.90;;;;;;5093839;28;20048;-76
2022/06/02 06:45:57;;;;;;;2.63;1.08;;;13.80;99.90;;;;;;5093698;28;20435;-74
2022/06/02 06:48:30;;;;;;;3.22;1.20;;;13.60;99.90;;;;;;5079702;28;20077;-75
2022/06/02 06:51:32;;;;;;;3.33;1.40;;;13.60;99.90;;;;;;5099536;28;20047;-76
2022/06/02 06:54:40;;;;;;;2.50;1.20;;;13.50;99.90;;;;;;5097669;28;20048;-76
2022/06/02 06:57:15;;;;;;;3.90;1.85;;;13.40;99.90;;;;;;5111172;28;20043;-76
2022/06/02 07:00:02;;;;;;;3.03;1.60;;;13.30;99.90;;;;;;5099382;28;20131;-75
2022/06/02 07:02:56;;;;;;;2.65;1.40;;;13.40;99.90;;;;;;5097721;28;20067;-76
2022/06/02 07:05:54;;;;;;;2.72;1.42;;;13.40;99.90;;;;;;5109796;28;20092;-76
2022/06/02 07:08:43;;;;;;;3.67;1.30;;;13.40;99.90;;;;;;5092542;28;20043;-76
2022/06/02 07:14:31;;;;;;;2.70;1.30;;;13.60;99.90;;;;;;5096835;28;20071;-75
2022/06/02 07:16:59;;;;;;;4.32;1.40;;;13.80;99.90;;;;;;5110190;28;20112;-76
2022/06/02 07:19:39;;;;;;;2.65;1.58;;;13.70;99.90;;;;;;5095026;28;20048;-75
2022/06/02 07:22:36;;;;;;;2.90;1.20;;;13.70;99.90;;;;;;5096580;28;20078;-75
2022/06/02 07:25:25;;;;;;;1.80;1.27;;;13.70;99.90;;;;;;5100201;28;20051;-74
2022/06/02 07:28:08;;;;;;;4.95;1.60;;;13.70;99.90;;;;;;5089543;28;20044;-76
2022/06/02 07:30:44;;;;;;;2.53;1.27;;;13.70;99.90;;;;;;5090329;28;20118;-75
2022/06/02 07:33:26;;;;;;;2.95;1.35;;;13.70;99.90;;;;;;5090215;28;20576;-76
2022/06/02 07:36:40;;;;;;;3.97;1.33;;;13.70;99.90;;;;;;5104159;28;20498;-76
2022/06/02 07:39:23;;;;;;;2.17;1.05;;;13.70;99.90;;;;;;5099194;28;20047;-76
2022/06/02 07:42:19;;;;;;;4.47;1.40;;;13.80;99.90;;;;;;5098711;28;20434;-76
2022/06/02 07:45:27;;;;;;;3.55;1.27;;;13.90;99.90;;;;;;5096403;28;20050;-75
2022/06/02 07:48:17;;;;;;;2.65;1.10;;;13.90;99.90;;;;;;5092187;28;20108;-75
2022/06/02 07:50:51;;;;;;;2.17;0.90;;;14.40;99.90;;;;;;5114257;28;20043;-75
2022/06/02 07:53:29;;;;;;;4.75;1.58;;;14.60;99.90;;;;;;5101194;28;20042;-75
2022/06/02 07:56:01;;;;;;;2.85;0.93;;;14.20;99.90;;;;;;5107092;28;20044;-76
2022/06/02 07:58:48;;;;;;;2.35;1.20;;;14.20;99.90;;;;;;5092613;28;20051;-76
2022/06/02 08:01:17;;;;;;;2.65;1.27;;;14.00;99.90;;;;;;5105469;28;20047;-76
2022/06/02 08:04:10;;;;;;;3.33;1.42;;;14.00;99.90;;;;;;5110050;28;20104;-76
2022/06/02 08:06:58;;;;;;;1.13;0.75;;;14.10;99.90;;;;;;5113970;28;20051;-76
2022/06/02 08:10:06;;;;;;;3.28;1.20;;;14.20;99.90;;;;;;5101305;28;20047;-76
2022/06/02 08:12:58;;;;;;;1.92;1.15;;;14.30;99.90;;;;;;5105166;28;20659;-75
2022/06/02 08:15:38;;;;;;;5.47;1.63;;;14.70;99.90;;;;;;5073499;28;20478;-76
2022/06/02 08:18:20;;;;;;;2.33;1.13;;;14.70;99.90;;;;;;5113800;28;20136;-76
2022/06/02 08:20:52;;;;;;;2.75;1.25;;;14.50;99.90;;;;;;5100651;28;20101;-76
2022/06/02 08:23:24;;;;;;;1.27;0.90;;;14.50;99.90;;;;;;5114977;28;20040;-76
2022/06/02 08:26:04;;;;;;;1.67;1.05;;;15.00;99.90;;;;;;5111119;28;20123;-76
2022/06/02 08:28:45;;;;;;;1.63;0.98;;;15.20;99.90;;;;;;5105370;28;20548;-77
2022/06/02 08:31:31;;;;;;;2.80;1.10;;;14.80;99.90;;;;;;5114913;28;20082;-76
2022/06/02 08:34:15;;;;;;;2.67;0.90;;;14.90;99.90;;;;;;5106221;28;20052;-76
2022/06/02 08:37:07;;;;;;;1.83;0.85;;;15.10;99.90;;;;;;5093470;28;20039;-77
2022/06/02 08:40:00;;;;;;;1.10;0.80;;;15.30;99.90;;;;;;5107162;28;20048;-76
2022/06/02 08:42:47;;;;;;;2.00;0.88;;;15.30;99.90;;;;;;5082444;28;20139;-76
2022/06/02 08:45:15;;;;;;;0.93;0.80;;;15.20;99.90;;;;;;5102600;28;20082;-76
2022/06/02 08:48:24;;;;;;;2.10;1.20;;;15.20;99.90;;;;;;5114339;28;20394;-76
2022/06/02 08:51:25;;;;;;;1.00;0.85;;;15.00;99.90;;;;;;5102921;28;20051;-76
2022/06/02 08:54:10;;;;;;;3.10;1.23;;;15.10;99.90;;;;;;5081514;28;20111;-77
2022/06/02 08:57:01;;;;;;;1.70;1.00;;;15.10;99.90;;;;;;5098231;28;20040;-77
2022/06/02 08:59:49;;;;;;;2.97;1.00;;;15.20;99.90;;;;;;5092017;28;20039;-71
2022/06/02 09:02:20;;;;;;;2.33;1.08;;;15.60;99.90;;;;;;5112893;28;20155;-72
2022/06/02 09:05:11;;;;;;;1.58;0.80;;;15.60;99.90;;;;;;5101207;28;20131;-73
2022/06/02 09:08:02;;;;;;;2.55;0.90;;;16.00;99.90;;;;;;5099266;28;20047;-72
2022/06/02 09:11:05;;;;;;;1.77;0.95;;;15.80;99.90;;;;;;5098113;28;20048;-72
2022/06/02 09:13:55;;;;;;;2.85;0.90;;;15.60;99.90;;;;;;5098567;28;20137;-72
2022/06/02 09:16:34;;;;;;;1.55;0.80;;;15.90;99.90;;;;;;5092461;28;20043;-72
2022/06/02 09:19:26;;;;;;;1.92;0.85;;;16.10;99.90;;;;;;5107456;28;20495;-72
2022/06/02 09:22:02;;;;;;;1.98;0.73;;;16.30;99.90;;;;;;5092282;28;20130;-72
2022/06/02 09:25:06;;;;;;;2.80;0.77;;;16.10;99.90;;;;;;5113413;28;20043;-72
2022/06/02 09:27:50;;;;;;;1.85;0.88;;;15.80;99.90;;;;;;5097456;28;20048;-72
2022/06/02 09:30:39;;;;;;;1.77;1.00;;;15.70;99.90;;;;;;5112108;28;20044;-71
2022/06/02 09:33:38;;;;;;;2.00;0.80;;;15.50;99.90;;;;;;5070056;28;20081;-71
2022/06/02 09:36:45;;;;;;;1.92;1.00;;;15.30;99.90;;;;;;5108960;28;20522;-71
2022/06/02 09:39:37;;;;;;;2.15;0.80;;;15.50;99.90;;;;;;5091935;28;20047;-71
2022/06/02 09:42:18;;;;;;;2.78;1.20;;;15.70;99.90;;;;;;5109364;28;20090;-71
2022/06/02 09:45:14;;;;;;;3.10;0.90;;;16.20;99.90;;;;;;5090529;28;20044;-71
2022/06/02 09:47:46;;;;;;;3.70;1.10;;;16.20;99.90;;;;;;5105610;28;20048;-72
2022/06/02 09:50:14;;;;;;;1.50;0.95;;;16.00;99.90;;;;;;5094437;28;20126;-72
2022/06/02 09:52:50;;;;;;;2.40;0.90;;;15.70;99.90;;;;;;5111454;28;20047;-71
2022/06/02 09:55:24;;;;;;;1.98;0.93;;;15.70;99.90;;;;;;5093907;28;20505;-71
2022/06/02 09:58:41;;;;;;;1.42;1.00;;;15.90;99.90;;;;;;5101614;28;20043;-72
2022/06/02 10:01:24;;;;;;;1.58;0.77;;;15.90;99.90;;;;;;5113237;28;20395;-71
2022/06/02 10:04:13;;;;;;;1.35;0.70;;;16.50;99.90;;;;;;5108197;28;20039;-71
2022/06/02 10:07:06;;;;;;;1.50;1.00;;;17.30;99.90;;;;;;5087217;28;20052;-71
2022/06/02 10:09:42;;;;;;;2.13;1.02;;;17.40;99.90;;;;;;5100878;28;20080;-71
2022/06/02 10:15:32;;;;;;;2.50;0.98;;;16.20;99.90;;;;;;5112506;28;20501;-71
2022/06/02 10:18:17;;;;;;;2.33;0.82;;;16.00;99.90;;;;;;5112324;28;20212;-71
2022/06/02 10:21:21;;;;;;;1.98;0.90;;;16.70;99.90;;;;;;5112139;28;20055;-72
2022/06/02 10:24:06;;;;;;;1.17;0.70;;;17.30;99.90;;;;;;5096779;28;20044;-72
2022/06/02 10:27:15;;;;;;;1.92;0.80;;;17.00;99.90;;;;;;5099882;28;20100;-72
2022/06/02 10:29:56;;;;;;;1.88;1.08;;;16.70;99.90;;;;;;5086940;28;20044;-72
2022/06/02 10:32:47;;;;;;;2.47;0.95;;;16.20;99.90;;;;;;5112602;28;20051;-72
2022/06/02 10:35:31;;;;;;;1.60;0.70;;;16.40;99.90;;;;;;5093664;28;20043;-72
2022/06/02 10:38:33;;;;;;;3.78;1.23;;;16.80;99.90;;;;;;5093379;28;20114;-71
2022/06/02 10:41:33;;;;;;;3.03;1.10;;;17.20;99.90;;;;;;5106018;28;20402;-72
2022/06/02 10:44:16;;;;;;;1.80;1.08;;;17.00;99.90;;;;;;5104222;28;20419;-72
2022/06/02 10:47:03;;;;;;;1.90;0.88;;;16.60;99.90;;;;;;5111903;28;20390;-71
2022/06/02 10:49:44;;;;;;;2.35;0.88;;;16.50;99.90;;;;;;5096187;28;20032;-72
2022/06/02 10:52:47;;;;;;;2.50;1.30;;;16.60;99.90;;;;;;5096048;28;20032;-72
2022/06/02 10:55:19;;;;;;;1.95;1.00;;;16.70;99.90;;;;;;5092716;28;20487;-72
2022/06/02 10:58:22;;;;;;;1.50;0.90;;;17.10;99.90;;;;;;5111876;28;20506;-72
2022/06/02 11:01:01;;;;;;;2.72;1.20;;;17.90;99.90;;;;;;5096974;28;20047;-72
2022/06/02 11:04:01;;;;;;;2.30;1.10;;;17.40;99.90;;;;;;5096226;28;20039;-72
2022/06/02 11:06:52;;;;;;;3.78;1.23;;;17.40;99.90;;;;;;5110483;28;20035;-72
2022/06/02 11:09:56;;;;;;;2.65;0.80;;;17.20;99.90;;;;;;5096921;28;20043;-72
2022/06/02 11:12:30;;;;;;;2.50;1.20;;;17.30;99.90;;;;;;5110392;28;20557;-72
2022/06/02 11:14:56;;;;;;;2.15;1.00;;;17.30;99.90;;;;;;5110164;28;20479;-71
2022/06/02 11:17:24;;;;;;;;;;;17.90;99.90;;;;;;5109052;28;20059;-72
2022/06/02 11:20:05;;;;;;;2.15;1.10;;;18.20;99.90;;;;;;5095737;28;19924;-71
2022/06/02 11:22:49;;;;;;;1.95;0.77;;;18.20;99.90;;;;;;5103943;28;20494;-72
2022/06/02 11:25:50;;;;;;;2.63;0.98;;;18.90;99.90;;;;;;5102233;28;20112;-72
2022/06/02 11:28:25;;;;;;;2.30;1.20;;;19.30;99.90;;;;;;5071798;28;20040;-72
2022/06/02 11:30:59;;;;;;;1.45;0.80;;;19.10;99.70;;;;;;5108161;28;20059;-71
2022/06/02 11:33:48;;;;;;;1.50;0.85;;;18.30;99.90;;;;;;5102136;28;20036;-71
2022/06/02 11:36:33;;;;;;;1.90;1.00;;;17.80;99.90;;;;;;5102836;28;20052;-72
2022/06/02 11:39:37;;;;;;;3.10;1.30;;;18.30;99.90;;;;;;5104488;28;20126;-71
2022/06/02 11:42:21;;;;;;;2.17;1.23;;;18.10;99.90;;;;;;5100009;28;20039;-72
2022/06/02 11:45:02;;;;;;;1.95;1.00;;;18.30;99.50;;;;;;5096949;28;20085;-72
2022/06/02 11:47:37;;;;;;;3.47;1.00;;;18.00;98.70;;;;;;5082415;28;20051;-73
2022/06/02 11:50:29;;;;;;;2.17;0.80;;;18.00;99.70;;;;;;5090988;28;20106;-73
2022/06/02 11:53:42;;;;;;;1.42;0.90;;;18.70;99.90;;;;;;5103263;28;20096;-73
2022/06/02 11:56:30;;;;;;;2.25;1.10;;;19.00;99.90;;;;;;5063037;28;20059;-73
2022/06/02 11:59:33;;;;;;;2.63;0.95;;;19.50;98.80;;;;;;5090278;28;20495;-77
2022/06/02 12:02:34;;;;;;;2.25;0.90;;;19.10;98.10;;;;;;5091167;28;20051;-77
2022/06/02 12:05:30;;;;;;;3.22;1.20;;;19.50;97.60;;;;;;5072728;28;20144;-77
2022/06/02 12:08:26;;;;;;;4.22;1.30;;;18.90;97.20;;;;;;5089337;28;20051;-77
2022/06/02 12:11:19;;;;;;;1.83;0.93;;;18.10;98.70;;;;;;5100019;28;20040;-76
2022/06/02 12:14:19;;;;;;;0.98;0.73;;;18.40;99.70;;;;;;5090927;28;20058;-77
2022/06/02 12:16:47;;;;;;;1.60;0.82;;;19.20;99.90;;;;;;5089773;28;20136;-77
2022/06/02 12:19:20;;;;;;;1.98;0.95;;;19.20;98.60;;;;;;5090489;28;20048;-77
2022/06/02 12:22:22;;;;;;;1.02;0.70;;;19.40;96.50;;;;;;5097520;28;20074;-77
2022/06/02 12:25:08;;;;;;;0.95;0.70;;;20.10;98.10;;;;;;5089993;28;20046;-77
2022/06/02 12:28:08;;;;;;;0.57;0.50;;;20.60;97.20;;;;;;5092844;28;20032;-78
2022/06/02 12:30:57;;;;;;;1.83;0.80;;;21.10;95.40;;;;;;5093730;28;20559;-78
2022/06/02 12:34:02;;;;;;;1.98;0.80;;;20.50;95.00;;;;;;5091896;28;20043;-80
2022/06/02 12:37:09;;;;;;;1.20;0.60;;;20.30;94.90;;;;;;5094021;28;20059;-78
2022/06/02 12:39:41;;;;;;;3.38;1.00;;;20.50;95.00;;;;;;5073094;28;20067;-79
2022/06/02 12:42:31;;;;;;;1.75;0.98;;;20.10;94.50;;;;;;5094355;28;20051;-79
2022/06/02 12:45:38;;;;;;;1.67;0.80;;;20.00;95.20;;;;;;5093606;28;20174;-79
2022/06/02 12:48:26;;;;;;;0.80;0.55;;;20.10;95.30;;;;;;5100152;28;20036;-79
2022/06/02 12:51:09;;;;;;;1.55;1.00;;;19.80;95.30;;;;;;5080956;28;20048;-79
2022/06/02 12:53:50;;;;;;;1.45;0.70;;;19.00;96.30;;;;;;5110588;28;20039;-78
2022/06/02 12:56:40;;;;;;;0.95;0.70;;;19.40;98.20;;;;;;5111305;28;20070;-79
2022/06/02 12:59:31;;;;;;;1.92;0.80;;;19.90;97.50;;;;;;5103449;28;20058;-79
2022/06/02 13:02:05;;;;;;;1.10;0.65;;;19.20;96.40;;;;;;5113568;28;20107;-79
2022/06/02 13:04:37;;;;;;;2.33;0.68;;;19.30;97.10;;;;;;5109678;28;20047;-79
2022/06/02 13:07:26;;;;;;;4.95;2.08;;;19.80;96.00;;;;;;5113691;28;20100;-79
2022/06/02 13:10:29;;;;;;;1.67;1.00;;;20.10;96.00;;;;;;5115104;28;20077;-79
2022/06/02 13:13:07;;;;;;;1.45;0.93;;;20.50;95.80;;;;;;5111373;28;20055;-77
2022/06/02 13:15:33;;;;;;;1.30;0.80;;;20.60;96.00;;;;;;5112724;28;20080;-77
2022/06/02 13:17:58;;;;;;;;;;;20.30;94.60;;;;;;5112870;28;20096;-77
2022/06/02 13:20:53;;;;;;;1.45;0.60;;;20.00;95.00;;;;;;5112517;28;19916;-78
2022/06/02 13:23:18;;;;;;;1.88;0.90;;;20.50;96.70;;;;;;5099184;28;20040;-78
2022/06/02 13:26:03;;;;;;;;;;;20.30;95.60;;;;;;5098163;28;20058;-78
2022/06/02 13:29:06;;;;;;;1.42;0.73;;;20.30;95.10;;;;;;5096165;28;19916;-77
2022/06/02 13:31:52;;;;;;;1.77;0.80;;;19.30;94.90;;;;;;5101984;28;20079;-77
2022/06/02 13:34:33;;;;;;;2.75;0.70;;;19.00;97.10;;;;;;5103768;28;20051;-78
2022/06/02 13:37:20;;;;;;;1.20;0.68;;;19.40;97.40;;;;;;5101317;28;20093;-77
2022/06/02 13:40:04;;;;;;;1.45;0.60;;;19.80;96.70;;;;;;5094899;28;20071;-76
2022/06/02 13:42:43;;;;;;;2.30;1.00;;;20.40;97.10;;;;;;5090266;28;20454;-77
2022/06/02 13:45:50;;;;;;;1.10;0.55;;;20.20;94.70;;;;;;5096304;28;20534;-72
2022/06/02 13:48:40;;;;;;;1.15;0.70;;;20.60;95.60;;;;;;5096459;28;20106;-73
2022/06/02 13:51:30;;;;;;;2.13;0.80;;;20.60;95.90;;;;;;5096373;28;20075;-73
2022/06/02 13:57:38;;;;;;;1.10;0.68;;;19.90;95.20;;;;;;5097977;28;20036;-78
2022/06/02 14:00:30;;;;;;;2.60;1.15;;;19.90;96.30;;;;;;5093380;28;20043;-78
2022/06/02 14:03:40;;;;;;;1.65;0.98;;;20.10;96.20;;;;;;5077962;28;20456;-78
2022/06/02 14:06:18;;;;;;;1.85;0.63;;;20.10;95.60;;;;;;5080135;28;20051;-79
2022/06/02 14:09:08;;;;;;;1.33;0.80;;;19.50;95.70;;;;;;5084171;28;20047;-78
2022/06/02 14:11:55;;;;;;;2.15;1.00;;;18.90;96.50;;;;;;5090100;28;20131;-79
2022/06/02 14:14:36;;;;;;;0.90;0.70;;;18.40;96.90;;;;;;5093894;28;20055;-79
2022/06/02 14:17:28;;;;;;;3.20;0.80;;;18.30;98.90;;;;;;5096069;28;20554;-78
2022/06/02 14:20:18;;;;;;;1.10;0.70;;;18.80;97.20;;;;;;5096304;28;20495;-78
2022/06/02 14:22:50;;;;;;;1.65;0.90;;;19.20;97.20;;;;;;5097267;28;20131;-78
2022/06/02 14:25:19;;;;;;;2.20;1.08;;;19.30;97.90;;;;;;5096106;28;20044;-78
2022/06/02 14:28:13;;;;;;;2.17;0.80;;;19.10;96.70;;;;;;5073783;28;20147;-78
2022/06/02 14:30:56;;;;;;;2.45;0.88;;;19.80;97.90;;;;;;5081802;28;20384;-78
2022/06/02 14:33:31;;;;;;;1.27;0.73;;;20.00;97.30;;;;;;5091780;28;20044;-78
2022/06/02 14:36:37;;;;;;;1.33;0.68;;;20.50;96.20;;;;;;5106309;28;20043;-78
2022/06/02 14:39:21;;;;;;;0.93;0.50;;;20.50;95.70;;;;;;5095056;28;20059;-77
2022/06/02 14:43:03;;;;;;;1.05;0.70;;;20.90;95.30;;;;;;5098499;28;20051;-77
2022/06/02 14:45:16;;;;;;;1.73;0.77;;;20.40;93.00;;;;;;5093102;28;20043;-78